sensor_id;sensor_type;location;lat;lon;timestamp;P1;durP1;ratioP1;P2;durP2;ratioP2
59458;SDS011;45269;43.568;22.244;2023-05-16T00:01:31;64.93;;;50.92;;
59458;SDS011;45269;43.568;22.244;2023-05-16T00:03:59;59.88;;;50.47;;
59458;SDS011;45269;43.568;22.244;2023-05-16T00:06:25;72.60;;;56.03;;
59458;SDS011;45269;43.568;22.244;2023-05-16T00:08:50;61.33;;;50.45;;
59458;SDS011;45269;43.568;22.244;2023-05-16T00:11:16;61.60;;;52.97;;
59458;SDS011;45269;43.568;22.244;2023-05-16T00:13:41;62.28;;;51.20;;
59458;SDS011;45269;43.568;22.244;2023-05-16T00:16:07;60.45;;;50.33;;
59458;SDS011;45269;43.568;22.244;2023-05-16T00:18:33;58.28;;;45.75;;
59458;SDS011;45269;43.568;22.244;2023-05-16T00:21:02;65.20;;;49.67;;
59458;SDS011;45269;43.568;22.244;2023-05-16T00:23:27;68.53;;;48.85;;
59458;SDS011;45269;43.568;22.244;2023-05-16T00:25:53;58.67;;;44.70;;
59458;SDS011;45269;43.568;22.244;2023-05-16T00:28:18;51.92;;;40.42;;
59458;SDS011;45269;43.568;22.244;2023-05-16T00:30:43;43.30;;;36.28;;
59458;SDS011;45269;43.568;22.244;2023-05-16T00:33:09;42.08;;;34.83;;
59458;SDS011;45269;43.568;22.244;2023-05-16T00:35:34;37.42;;;33.42;;
59458;SDS011;45269;43.568;22.244;2023-05-16T00:37:59;36.70;;;32.50;;
59458;SDS011;45269;43.568;22.244;2023-05-16T00:40:25;37.15;;;30.35;;
59458;SDS011;45269;43.568;22.244;2023-05-16T00:42:50;34.22;;;30.40;;
59458;SDS011;45269;43.568;22.244;2023-05-16T00:45:16;36.30;;;30.50;;
59458;SDS011;45269;43.568;22.244;2023-05-16T00:47:41;40.05;;;35.72;;
59458;SDS011;45269;43.568;22.244;2023-05-16T00:50:06;59.42;;;47.08;;
59458;SDS011;45269;43.568;22.244;2023-05-16T00:52:32;46.40;;;36.88;;
59458;SDS011;45269;43.568;22.244;2023-05-16T00:54:57;45.80;;;40.17;;
59458;SDS011;45269;43.568;22.244;2023-05-16T00:57:23;47.03;;;38.35;;
59458;SDS011;45269;43.568;22.244;2023-05-16T00:59:49;40.75;;;36.53;;
59458;SDS011;45269;43.568;22.244;2023-05-16T01:02:15;43.95;;;39.47;;
59458;SDS011;45269;43.568;22.244;2023-05-16T01:04:42;34.95;;;31.15;;
59458;SDS011;45269;43.568;22.244;2023-05-16T01:07:07;37.83;;;33.83;;
59458;SDS011;45269;43.568;22.244;2023-05-16T01:09:32;37.03;;;32.00;;
59458;SDS011;45269;43.568;22.244;2023-05-16T01:17:06;33.63;;;29.38;;
59458;SDS011;45269;43.568;22.244;2023-05-16T01:22:02;38.65;;;34.58;;
59458;SDS011;45269;43.568;22.244;2023-05-16T01:24:33;41.58;;;34.40;;
59458;SDS011;45269;43.568;22.244;2023-05-16T01:26:59;39.10;;;34.90;;
59458;SDS011;45269;43.568;22.244;2023-05-16T01:29:24;38.95;;;33.60;;
59458;SDS011;45269;43.568;22.244;2023-05-16T01:31:50;40.72;;;32.47;;
59458;SDS011;45269;43.568;22.244;2023-05-16T01:34:15;37.83;;;32.08;;
59458;SDS011;45269;43.568;22.244;2023-05-16T01:36:43;34.35;;;30.60;;
59458;SDS011;45269;43.568;22.244;2023-05-16T01:39:26;34.45;;;30.83;;
59458;SDS011;45269;43.568;22.244;2023-05-16T01:44:22;32.80;;;29.38;;
59458;SDS011;45269;43.568;22.244;2023-05-16T01:46:49;34.53;;;31.05;;
59458;SDS011;45269;43.568;22.244;2023-05-16T01:49:20;36.67;;;31.92;;
59458;SDS011;45269;43.568;22.244;2023-05-16T01:51:50;40.30;;;35.53;;
59458;SDS011;45269;43.568;22.244;2023-05-16T01:54:17;40.75;;;36.03;;
59458;SDS011;45269;43.568;22.244;2023-05-16T01:56:45;38.67;;;34.10;;
59458;SDS011;45269;43.568;22.244;2023-05-16T01:59:12;40.17;;;34.08;;
59458;SDS011;45269;43.568;22.244;2023-05-16T02:01:37;39.45;;;34.35;;
59458;SDS011;45269;43.568;22.244;2023-05-16T02:04:03;36.88;;;32.35;;
59458;SDS011;45269;43.568;22.244;2023-05-16T02:06:28;34.67;;;30.83;;
59458;SDS011;45269;43.568;22.244;2023-05-16T02:08:54;36.53;;;32.53;;
59458;SDS011;45269;43.568;22.244;2023-05-16T02:11:20;36.17;;;31.90;;
59458;SDS011;45269;43.568;22.244;2023-05-16T02:13:46;36.33;;;32.58;;
59458;SDS011;45269;43.568;22.244;2023-05-16T02:16:11;38.67;;;34.47;;
59458;SDS011;45269;43.568;22.244;2023-05-16T02:18:37;67.63;;;60.47;;
59458;SDS011;45269;43.568;22.244;2023-05-16T02:21:03;46.38;;;41.63;;
59458;SDS011;45269;43.568;22.244;2023-05-16T02:23:28;41.42;;;37.13;;
59458;SDS011;45269;43.568;22.244;2023-05-16T02:25:53;40.63;;;36.30;;
59458;SDS011;45269;43.568;22.244;2023-05-16T02:28:19;36.42;;;32.65;;
59458;SDS011;45269;43.568;22.244;2023-05-16T02:30:45;35.05;;;31.13;;
59458;SDS011;45269;43.568;22.244;2023-05-16T02:33:10;31.55;;;28.35;;
59458;SDS011;45269;43.568;22.244;2023-05-16T02:35:35;34.97;;;31.27;;
59458;SDS011;45269;43.568;22.244;2023-05-16T02:38:01;35.85;;;32.20;;
59458;SDS011;45269;43.568;22.244;2023-05-16T02:40:26;40.63;;;33.88;;
59458;SDS011;45269;43.568;22.244;2023-05-16T02:42:52;47.22;;;33.75;;
59458;SDS011;45269;43.568;22.244;2023-05-16T02:45:18;40.58;;;33.05;;
59458;SDS011;45269;43.568;22.244;2023-05-16T02:47:44;36.63;;;32.72;;
59458;SDS011;45269;43.568;22.244;2023-05-16T02:50:09;36.88;;;32.92;;
59458;SDS011;45269;43.568;22.244;2023-05-16T02:52:34;35.00;;;31.35;;
59458;SDS011;45269;43.568;22.244;2023-05-16T02:55:00;36.33;;;32.45;;
59458;SDS011;45269;43.568;22.244;2023-05-16T02:57:25;36.90;;;32.80;;
59458;SDS011;45269;43.568;22.244;2023-05-16T02:59:51;38.15;;;34.25;;
59458;SDS011;45269;43.568;22.244;2023-05-16T03:02:16;40.38;;;34.30;;
59458;SDS011;45269;43.568;22.244;2023-05-16T03:04:41;33.45;;;30.08;;
59458;SDS011;45269;43.568;22.244;2023-05-16T03:07:07;37.40;;;33.58;;
59458;SDS011;45269;43.568;22.244;2023-05-16T03:09:32;34.42;;;30.80;;
59458;SDS011;45269;43.568;22.244;2023-05-16T03:11:58;31.35;;;28.10;;
59458;SDS011;45269;43.568;22.244;2023-05-16T03:14:23;29.08;;;26.17;;
59458;SDS011;45269;43.568;22.244;2023-05-16T03:16:49;27.73;;;24.95;;
59458;SDS011;45269;43.568;22.244;2023-05-16T03:19:14;25.95;;;23.45;;
59458;SDS011;45269;43.568;22.244;2023-05-16T03:21:39;26.48;;;23.80;;
59458;SDS011;45269;43.568;22.244;2023-05-16T03:24:05;26.70;;;24.05;;
59458;SDS011;45269;43.568;22.244;2023-05-16T03:26:30;28.65;;;25.73;;
59458;SDS011;45269;43.568;22.244;2023-05-16T03:28:56;31.77;;;27.50;;
59458;SDS011;45269;43.568;22.244;2023-05-16T03:31:21;29.63;;;25.73;;
59458;SDS011;45269;43.568;22.244;2023-05-16T03:33:46;30.00;;;26.55;;
59458;SDS011;45269;43.568;22.244;2023-05-16T03:36:12;27.48;;;24.77;;
59458;SDS011;45269;43.568;22.244;2023-05-16T03:38:37;28.58;;;24.83;;
59458;SDS011;45269;43.568;22.244;2023-05-16T03:41:02;27.65;;;23.27;;
59458;SDS011;45269;43.568;22.244;2023-05-16T03:43:28;27.23;;;24.38;;
59458;SDS011;45269;43.568;22.244;2023-05-16T03:45:53;28.55;;;25.63;;
59458;SDS011;45269;43.568;22.244;2023-05-16T03:48:19;27.17;;;23.70;;
59458;SDS011;45269;43.568;22.244;2023-05-16T03:50:45;26.60;;;23.95;;
59458;SDS011;45269;43.568;22.244;2023-05-16T03:53:10;23.52;;;21.05;;
59458;SDS011;45269;43.568;22.244;2023-05-16T03:55:36;24.42;;;22.05;;
59458;SDS011;45269;43.568;22.244;2023-05-16T03:58:01;22.50;;;20.27;;
59458;SDS011;45269;43.568;22.244;2023-05-16T04:00:27;25.42;;;22.42;;
59458;SDS011;45269;43.568;22.244;2023-05-16T04:02:52;25.95;;;23.27;;
59458;SDS011;45269;43.568;22.244;2023-05-16T04:05:17;23.90;;;21.50;;
59458;SDS011;45269;43.568;22.244;2023-05-16T04:07:43;26.70;;;21.48;;
59458;SDS011;45269;43.568;22.244;2023-05-16T04:10:08;34.97;;;31.48;;
59458;SDS011;45269;43.568;22.244;2023-05-16T04:12:34;29.63;;;22.75;;
59458;SDS011;45269;43.568;22.244;2023-05-16T04:15:00;21.38;;;19.30;;
59458;SDS011;45269;43.568;22.244;2023-05-16T04:17:25;20.88;;;18.55;;
59458;SDS011;45269;43.568;22.244;2023-05-16T04:19:51;23.30;;;18.73;;
59458;SDS011;45269;43.568;22.244;2023-05-16T04:22:16;34.72;;;31.23;;
59458;SDS011;45269;43.568;22.244;2023-05-16T04:24:41;30.30;;;22.35;;
59458;SDS011;45269;43.568;22.244;2023-05-16T04:27:07;30.88;;;27.00;;
59458;SDS011;45269;43.568;22.244;2023-05-16T04:29:36;30.05;;;26.67;;
59458;SDS011;45269;43.568;22.244;2023-05-16T04:32:01;35.00;;;29.77;;
59458;SDS011;45269;43.568;22.244;2023-05-16T04:34:27;36.53;;;31.95;;
59458;SDS011;45269;43.568;22.244;2023-05-16T04:36:53;36.33;;;32.38;;
59458;SDS011;45269;43.568;22.244;2023-05-16T04:39:18;29.35;;;26.45;;
59458;SDS011;45269;43.568;22.244;2023-05-16T04:41:44;28.45;;;25.55;;
59458;SDS011;45269;43.568;22.244;2023-05-16T04:44:09;24.42;;;21.05;;
59458;SDS011;45269;43.568;22.244;2023-05-16T04:46:35;34.92;;;25.38;;
59458;SDS011;45269;43.568;22.244;2023-05-16T04:49:00;34.63;;;30.27;;
59458;SDS011;45269;43.568;22.244;2023-05-16T04:51:26;31.05;;;27.40;;
59458;SDS011;45269;43.568;22.244;2023-05-16T04:53:51;31.90;;;25.70;;
59458;SDS011;45269;43.568;22.244;2023-05-16T04:56:16;27.83;;;25.02;;
59458;SDS011;45269;43.568;22.244;2023-05-16T04:58:42;27.98;;;25.02;;
59458;SDS011;45269;43.568;22.244;2023-05-16T05:01:07;29.35;;;26.25;;
59458;SDS011;45269;43.568;22.244;2023-05-16T05:03:33;34.40;;;30.85;;
59458;SDS011;45269;43.568;22.244;2023-05-16T05:05:58;38.80;;;33.00;;
59458;SDS011;45269;43.568;22.244;2023-05-16T05:08:24;31.75;;;27.88;;
59458;SDS011;45269;43.568;22.244;2023-05-16T05:10:50;43.13;;;33.20;;
59458;SDS011;45269;43.568;22.244;2023-05-16T05:13:15;35.95;;;28.85;;
59458;SDS011;45269;43.568;22.244;2023-05-16T05:15:40;30.42;;;27.25;;
59458;SDS011;45269;43.568;22.244;2023-05-16T05:18:06;31.98;;;25.92;;
59458;SDS011;45269;43.568;22.244;2023-05-16T05:20:31;30.55;;;27.27;;
59458;SDS011;45269;43.568;22.244;2023-05-16T05:22:57;30.77;;;27.48;;
59458;SDS011;45269;43.568;22.244;2023-05-16T05:25:22;30.33;;;27.05;;
59458;SDS011;45269;43.568;22.244;2023-05-16T05:27:47;31.95;;;27.38;;
59458;SDS011;45269;43.568;22.244;2023-05-16T05:30:13;42.97;;;38.15;;
59458;SDS011;45269;43.568;22.244;2023-05-16T05:32:38;47.92;;;40.83;;
59458;SDS011;45269;43.568;22.244;2023-05-16T05:35:04;44.08;;;37.67;;
59458;SDS011;45269;43.568;22.244;2023-05-16T05:37:29;41.92;;;35.55;;
59458;SDS011;45269;43.568;22.244;2023-05-16T05:39:55;68.15;;;47.97;;
59458;SDS011;45269;43.568;22.244;2023-05-16T05:42:20;63.17;;;48.15;;
59458;SDS011;45269;43.568;22.244;2023-05-16T05:44:46;64.53;;;56.70;;
59458;SDS011;45269;43.568;22.244;2023-05-16T05:47:11;55.95;;;47.30;;
59458;SDS011;45269;43.568;22.244;2023-05-16T05:49:37;56.42;;;50.58;;
59458;SDS011;45269;43.568;22.244;2023-05-16T05:52:02;32.90;;;27.77;;
59458;SDS011;45269;43.568;22.244;2023-05-16T05:54:28;30.20;;;27.08;;
59458;SDS011;45269;43.568;22.244;2023-05-16T05:56:55;42.50;;;37.97;;
59458;SDS011;45269;43.568;22.244;2023-05-16T05:59:21;35.03;;;30.75;;
59458;SDS011;45269;43.568;22.244;2023-05-16T06:01:46;30.88;;;27.70;;
59458;SDS011;45269;43.568;22.244;2023-05-16T06:04:16;26.23;;;23.52;;
59458;SDS011;45269;43.568;22.244;2023-05-16T06:06:41;24.25;;;21.83;;
59458;SDS011;45269;43.568;22.244;2023-05-16T06:09:07;21.55;;;18.77;;
59458;SDS011;45269;43.568;22.244;2023-05-16T06:11:32;22.42;;;17.73;;
59458;SDS011;45269;43.568;22.244;2023-05-16T06:13:57;17.80;;;16.02;;
59458;SDS011;45269;43.568;22.244;2023-05-16T06:16:23;23.23;;;19.80;;
59458;SDS011;45269;43.568;22.244;2023-05-16T06:18:49;18.20;;;16.25;;
59458;SDS011;45269;43.568;22.244;2023-05-16T06:21:14;16.95;;;15.20;;
59458;SDS011;45269;43.568;22.244;2023-05-16T06:23:40;16.42;;;14.55;;
59458;SDS011;45269;43.568;22.244;2023-05-16T06:26:05;18.50;;;14.50;;
59458;SDS011;45269;43.568;22.244;2023-05-16T06:28:30;21.08;;;16.55;;
59458;SDS011;45269;43.568;22.244;2023-05-16T06:30:56;16.13;;;14.38;;
59458;SDS011;45269;43.568;22.244;2023-05-16T06:33:21;14.38;;;13.07;;
59458;SDS011;45269;43.568;22.244;2023-05-16T06:35:47;17.70;;;14.45;;
59458;SDS011;45269;43.568;22.244;2023-05-16T06:38:13;18.75;;;16.90;;
59458;SDS011;45269;43.568;22.244;2023-05-16T06:40:38;19.13;;;15.52;;
59458;SDS011;45269;43.568;22.244;2023-05-16T06:43:04;25.65;;;22.95;;
59458;SDS011;45269;43.568;22.244;2023-05-16T06:45:29;39.33;;;32.95;;
59458;SDS011;45269;43.568;22.244;2023-05-16T06:47:54;37.47;;;29.38;;
59458;SDS011;45269;43.568;22.244;2023-05-16T06:50:21;33.65;;;26.60;;
59458;SDS011;45269;43.568;22.244;2023-05-16T06:52:46;29.75;;;23.73;;
59458;SDS011;45269;43.568;22.244;2023-05-16T06:55:12;37.33;;;28.35;;
59458;SDS011;45269;43.568;22.244;2023-05-16T06:57:37;28.77;;;22.20;;
59458;SDS011;45269;43.568;22.244;2023-05-16T07:00:03;19.17;;;17.23;;
59458;SDS011;45269;43.568;22.244;2023-05-16T07:02:28;18.05;;;16.33;;
59458;SDS011;45269;43.568;22.244;2023-05-16T07:04:53;25.40;;;21.15;;
59458;SDS011;45269;43.568;22.244;2023-05-16T07:07:19;121.35;;;76.65;;
59458;SDS011;45269;43.568;22.244;2023-05-16T07:09:44;50.65;;;35.10;;
59458;SDS011;45269;43.568;22.244;2023-05-16T07:12:09;28.73;;;23.45;;
59458;SDS011;45269;43.568;22.244;2023-05-16T07:14:35;22.05;;;19.15;;
59458;SDS011;45269;43.568;22.244;2023-05-16T07:17:00;17.80;;;15.77;;
59458;SDS011;45269;43.568;22.244;2023-05-16T07:19:25;17.15;;;15.43;;
59458;SDS011;45269;43.568;22.244;2023-05-16T07:21:51;19.45;;;14.32;;
59458;SDS011;45269;43.568;22.244;2023-05-16T07:24:16;16.02;;;13.15;;
59458;SDS011;45269;43.568;22.244;2023-05-16T07:26:42;16.35;;;14.63;;
59458;SDS011;45269;43.568;22.244;2023-05-16T07:29:07;15.50;;;13.55;;
59458;SDS011;45269;43.568;22.244;2023-05-16T07:31:32;15.50;;;13.68;;
59458;SDS011;45269;43.568;22.244;2023-05-16T07:33:58;15.43;;;13.85;;
59458;SDS011;45269;43.568;22.244;2023-05-16T07:36:23;14.95;;;13.48;;
59458;SDS011;45269;43.568;22.244;2023-05-16T07:38:49;18.27;;;13.95;;
59458;SDS011;45269;43.568;22.244;2023-05-16T07:41:14;18.75;;;13.98;;
59458;SDS011;45269;43.568;22.244;2023-05-16T07:43:40;15.55;;;13.40;;
59458;SDS011;45269;43.568;22.244;2023-05-16T07:46:05;27.33;;;16.08;;
59458;SDS011;45269;43.568;22.244;2023-05-16T07:48:30;20.30;;;16.35;;
59458;SDS011;45269;43.568;22.244;2023-05-16T07:50:56;18.60;;;14.85;;
59458;SDS011;45269;43.568;22.244;2023-05-16T07:53:21;22.52;;;19.20;;
59458;SDS011;45269;43.568;22.244;2023-05-16T07:55:47;16.50;;;14.52;;
59458;SDS011;45269;43.568;22.244;2023-05-16T07:58:13;15.05;;;13.55;;
59458;SDS011;45269;43.568;22.244;2023-05-16T08:00:38;14.23;;;12.48;;
59458;SDS011;45269;43.568;22.244;2023-05-16T08:03:04;16.10;;;13.07;;
59458;SDS011;45269;43.568;22.244;2023-05-16T08:05:29;14.35;;;12.35;;
59458;SDS011;45269;43.568;22.244;2023-05-16T08:07:55;13.73;;;12.32;;
59458;SDS011;45269;43.568;22.244;2023-05-16T08:10:20;14.35;;;12.32;;
59458;SDS011;45269;43.568;22.244;2023-05-16T08:12:47;14.27;;;12.77;;
59458;SDS011;45269;43.568;22.244;2023-05-16T08:15:12;15.57;;;13.10;;
59458;SDS011;45269;43.568;22.244;2023-05-16T08:17:37;15.43;;;13.45;;
59458;SDS011;45269;43.568;22.244;2023-05-16T08:20:03;17.27;;;14.10;;
59458;SDS011;45269;43.568;22.244;2023-05-16T08:22:30;17.25;;;14.40;;
59458;SDS011;45269;43.568;22.244;2023-05-16T08:24:55;12.90;;;11.50;;
59458;SDS011;45269;43.568;22.244;2023-05-16T08:27:22;15.32;;;12.02;;
59458;SDS011;45269;43.568;22.244;2023-05-16T08:29:47;14.02;;;12.63;;
59458;SDS011;45269;43.568;22.244;2023-05-16T08:32:13;15.63;;;13.95;;
59458;SDS011;45269;43.568;22.244;2023-05-16T08:34:38;14.52;;;12.70;;
59458;SDS011;45269;43.568;22.244;2023-05-16T08:37:03;20.90;;;15.27;;
59458;SDS011;45269;43.568;22.244;2023-05-16T08:39:29;19.85;;;15.00;;
59458;SDS011;45269;43.568;22.244;2023-05-16T08:41:54;19.67;;;14.02;;
59458;SDS011;45269;43.568;22.244;2023-05-16T08:44:20;16.50;;;14.13;;
59458;SDS011;45269;43.568;22.244;2023-05-16T08:46:52;24.42;;;15.02;;
59458;SDS011;45269;43.568;22.244;2023-05-16T08:49:18;20.23;;;14.43;;
59458;SDS011;45269;43.568;22.244;2023-05-16T08:51:45;15.18;;;12.18;;
59458;SDS011;45269;43.568;22.244;2023-05-16T08:54:11;18.00;;;14.38;;
59458;SDS011;45269;43.568;22.244;2023-05-16T08:56:41;15.45;;;12.55;;
59458;SDS011;45269;43.568;22.244;2023-05-16T08:59:06;16.63;;;11.40;;
59458;SDS011;45269;43.568;22.244;2023-05-16T09:01:32;15.48;;;12.35;;
59458;SDS011;45269;43.568;22.244;2023-05-16T09:03:58;14.68;;;11.77;;
59458;SDS011;45269;43.568;22.244;2023-05-16T09:06:24;13.00;;;10.73;;
59458;SDS011;45269;43.568;22.244;2023-05-16T09:08:50;14.32;;;10.48;;
59458;SDS011;45269;43.568;22.244;2023-05-16T09:11:16;15.15;;;12.55;;
59458;SDS011;45269;43.568;22.244;2023-05-16T09:13:41;56.17;;;38.13;;
59458;SDS011;45269;43.568;22.244;2023-05-16T09:16:16;20.65;;;15.55;;
59458;SDS011;45269;43.568;22.244;2023-05-16T09:18:42;20.60;;;16.67;;
59458;SDS011;45269;43.568;22.244;2023-05-16T09:21:08;14.15;;;12.07;;
59458;SDS011;45269;43.568;22.244;2023-05-16T09:23:34;15.20;;;13.70;;
59458;SDS011;45269;43.568;22.244;2023-05-16T09:25:59;13.23;;;10.32;;
59458;SDS011;45269;43.568;22.244;2023-05-16T09:28:25;14.20;;;11.30;;
59458;SDS011;45269;43.568;22.244;2023-05-16T09:30:51;13.38;;;11.73;;
59458;SDS011;45269;43.568;22.244;2023-05-16T09:33:16;13.40;;;11.70;;
59458;SDS011;45269;43.568;22.244;2023-05-16T09:35:41;12.25;;;10.85;;
59458;SDS011;45269;43.568;22.244;2023-05-16T09:38:12;11.93;;;10.57;;
59458;SDS011;45269;43.568;22.244;2023-05-16T09:40:39;16.15;;;11.27;;
59458;SDS011;45269;43.568;22.244;2023-05-16T09:43:05;16.52;;;12.65;;
59458;SDS011;45269;43.568;22.244;2023-05-16T09:45:32;17.25;;;13.52;;
59458;SDS011;45269;43.568;22.244;2023-05-16T09:48:03;19.98;;;12.90;;
59458;SDS011;45269;43.568;22.244;2023-05-16T09:50:28;19.20;;;12.95;;
59458;SDS011;45269;43.568;22.244;2023-05-16T09:52:55;17.95;;;14.25;;
59458;SDS011;45269;43.568;22.244;2023-05-16T09:55:21;20.80;;;16.67;;
59458;SDS011;45269;43.568;22.244;2023-05-16T09:57:47;20.30;;;16.88;;
59458;SDS011;45269;43.568;22.244;2023-05-16T10:00:13;26.45;;;18.60;;
59458;SDS011;45269;43.568;22.244;2023-05-16T10:02:38;25.67;;;20.27;;
59458;SDS011;45269;43.568;22.244;2023-05-16T10:05:05;23.63;;;18.65;;
59458;SDS011;45269;43.568;22.244;2023-05-16T10:07:30;27.50;;;19.17;;
59458;SDS011;45269;43.568;22.244;2023-05-16T10:10:08;26.77;;;17.65;;
59458;SDS011;45269;43.568;22.244;2023-05-16T10:12:33;22.42;;;16.90;;
59458;SDS011;45269;43.568;22.244;2023-05-16T10:15:01;18.67;;;15.50;;
59458;SDS011;45269;43.568;22.244;2023-05-16T10:17:27;18.50;;;12.80;;
59458;SDS011;45269;43.568;22.244;2023-05-16T10:19:56;19.08;;;12.95;;
59458;SDS011;45269;43.568;22.244;2023-05-16T10:22:21;22.88;;;15.23;;
59458;SDS011;45269;43.568;22.244;2023-05-16T10:24:51;19.10;;;15.48;;
59458;SDS011;45269;43.568;22.244;2023-05-16T10:27:19;20.52;;;15.70;;
59458;SDS011;45269;43.568;22.244;2023-05-16T10:29:45;33.55;;;22.33;;
59458;SDS011;45269;43.568;22.244;2023-05-16T10:32:10;21.25;;;15.45;;
59458;SDS011;45269;43.568;22.244;2023-05-16T10:34:37;19.27;;;13.40;;
59458;SDS011;45269;43.568;22.244;2023-05-16T10:37:03;15.55;;;13.15;;
59458;SDS011;45269;43.568;22.244;2023-05-16T10:39:29;16.10;;;14.00;;
59458;SDS011;45269;43.568;22.244;2023-05-16T10:41:55;14.13;;;12.63;;
59458;SDS011;45269;43.568;22.244;2023-05-16T10:44:21;15.27;;;12.60;;
59458;SDS011;45269;43.568;22.244;2023-05-16T10:46:46;12.68;;;11.38;;
59458;SDS011;45269;43.568;22.244;2023-05-16T10:49:25;16.80;;;11.88;;
59458;SDS011;45269;43.568;22.244;2023-05-16T10:52:04;15.77;;;14.07;;
59458;SDS011;45269;43.568;22.244;2023-05-16T10:54:34;15.07;;;11.65;;
59458;SDS011;45269;43.568;22.244;2023-05-16T10:57:02;14.70;;;10.65;;
59458;SDS011;45269;43.568;22.244;2023-05-16T10:59:28;16.17;;;11.38;;
59458;SDS011;45269;43.568;22.244;2023-05-16T11:01:56;13.20;;;11.48;;
59458;SDS011;45269;43.568;22.244;2023-05-16T11:04:21;14.75;;;11.20;;
59458;SDS011;45269;43.568;22.244;2023-05-16T11:06:50;12.80;;;11.15;;
59458;SDS011;45269;43.568;22.244;2023-05-16T11:14:07;14.88;;;11.68;;
59458;SDS011;45269;43.568;22.244;2023-05-16T11:16:33;15.23;;;12.43;;
59458;SDS011;45269;43.568;22.244;2023-05-16T11:19:05;17.13;;;10.68;;
59458;SDS011;45269;43.568;22.244;2023-05-16T11:22:03;13.13;;;10.77;;
59458;SDS011;45269;43.568;22.244;2023-05-16T11:24:29;13.75;;;10.75;;
59458;SDS011;45269;43.568;22.244;2023-05-16T11:26:55;14.48;;;10.55;;
59458;SDS011;45269;43.568;22.244;2023-05-16T11:29:20;12.63;;;10.15;;
59458;SDS011;45269;43.568;22.244;2023-05-16T11:31:46;13.73;;;10.98;;
59458;SDS011;45269;43.568;22.244;2023-05-16T11:34:12;12.70;;;11.02;;
59458;SDS011;45269;43.568;22.244;2023-05-16T11:36:37;14.15;;;11.73;;
59458;SDS011;45269;43.568;22.244;2023-05-16T11:39:05;13.35;;;9.70;;
59458;SDS011;45269;43.568;22.244;2023-05-16T11:41:31;18.02;;;10.98;;
59458;SDS011;45269;43.568;22.244;2023-05-16T11:43:56;14.18;;;11.60;;
59458;SDS011;45269;43.568;22.244;2023-05-16T11:46:22;15.05;;;11.73;;
59458;SDS011;45269;43.568;22.244;2023-05-16T11:48:47;20.40;;;12.35;;
59458;SDS011;45269;43.568;22.244;2023-05-16T11:51:12;19.55;;;12.95;;
59458;SDS011;45269;43.568;22.244;2023-05-16T11:53:42;12.68;;;11.05;;
59458;SDS011;45269;43.568;22.244;2023-05-16T11:56:08;13.80;;;10.40;;
59458;SDS011;45269;43.568;22.244;2023-05-16T11:58:35;13.27;;;10.48;;
59458;SDS011;45269;43.568;22.244;2023-05-16T12:01:02;17.45;;;15.75;;
59458;SDS011;45269;43.568;22.244;2023-05-16T12:03:28;19.90;;;14.23;;
59458;SDS011;45269;43.568;22.244;2023-05-16T12:05:57;15.65;;;13.50;;
59458;SDS011;45269;43.568;22.244;2023-05-16T12:08:23;12.85;;;10.82;;
59458;SDS011;45269;43.568;22.244;2023-05-16T12:10:49;19.25;;;11.30;;
59458;SDS011;45269;43.568;22.244;2023-05-16T12:13:16;15.70;;;11.05;;
59458;SDS011;45269;43.568;22.244;2023-05-16T12:15:41;13.40;;;11.98;;
59458;SDS011;45269;43.568;22.244;2023-05-16T12:18:08;16.08;;;11.63;;
59458;SDS011;45269;43.568;22.244;2023-05-16T12:20:33;13.30;;;11.48;;
59458;SDS011;45269;43.568;22.244;2023-05-16T12:22:58;12.63;;;10.20;;
59458;SDS011;45269;43.568;22.244;2023-05-16T12:25:28;11.00;;;9.90;;
59458;SDS011;45269;43.568;22.244;2023-05-16T12:27:55;17.75;;;10.07;;
59458;SDS011;45269;43.568;22.244;2023-05-16T12:30:22;13.80;;;12.13;;
59458;SDS011;45269;43.568;22.244;2023-05-16T12:35:23;27.48;;;20.92;;
59458;SDS011;45269;43.568;22.244;2023-05-16T12:37:48;30.42;;;23.23;;
59458;SDS011;45269;43.568;22.244;2023-05-16T12:40:15;26.70;;;21.75;;
59458;SDS011;45269;43.568;22.244;2023-05-16T12:42:42;27.58;;;19.55;;
59458;SDS011;45269;43.568;22.244;2023-05-16T12:45:15;20.92;;;17.30;;
59458;SDS011;45269;43.568;22.244;2023-05-16T12:47:41;19.50;;;17.42;;
59458;SDS011;45269;43.568;22.244;2023-05-16T12:50:10;23.35;;;16.80;;
59458;SDS011;45269;43.568;22.244;2023-05-16T12:52:44;19.40;;;16.77;;
59458;SDS011;45269;43.568;22.244;2023-05-16T12:55:10;20.27;;;17.50;;
59458;SDS011;45269;43.568;22.244;2023-05-16T12:57:35;19.23;;;16.60;;
59458;SDS011;45269;43.568;22.244;2023-05-16T13:00:01;24.20;;;14.93;;
59458;SDS011;45269;43.568;22.244;2023-05-16T13:02:26;15.13;;;13.23;;
59458;SDS011;45269;43.568;22.244;2023-05-16T13:04:52;17.88;;;13.05;;
59458;SDS011;45269;43.568;22.244;2023-05-16T13:07:17;17.45;;;15.55;;
59458;SDS011;45269;43.568;22.244;2023-05-16T13:09:42;17.50;;;14.40;;
59458;SDS011;45269;43.568;22.244;2023-05-16T13:12:08;17.98;;;15.10;;
59458;SDS011;45269;43.568;22.244;2023-05-16T13:14:33;22.58;;;18.63;;
59458;SDS011;45269;43.568;22.244;2023-05-16T13:16:58;23.38;;;20.58;;
59458;SDS011;45269;43.568;22.244;2023-05-16T13:19:24;31.70;;;26.25;;
59458;SDS011;45269;43.568;22.244;2023-05-16T13:21:49;29.63;;;26.20;;
59458;SDS011;45269;43.568;22.244;2023-05-16T13:24:15;28.27;;;23.63;;
59458;SDS011;45269;43.568;22.244;2023-05-16T13:26:40;42.53;;;37.70;;
59458;SDS011;45269;43.568;22.244;2023-05-16T13:29:06;31.92;;;28.75;;
59458;SDS011;45269;43.568;22.244;2023-05-16T13:31:33;27.58;;;24.75;;
59458;SDS011;45269;43.568;22.244;2023-05-16T13:33:59;28.17;;;23.27;;
59458;SDS011;45269;43.568;22.244;2023-05-16T13:36:24;30.60;;;25.55;;
59458;SDS011;45269;43.568;22.244;2023-05-16T13:38:49;32.30;;;24.55;;
59458;SDS011;45269;43.568;22.244;2023-05-16T13:41:15;30.33;;;24.30;;
59458;SDS011;45269;43.568;22.244;2023-05-16T13:43:40;139.05;;;65.43;;
59458;SDS011;45269;43.568;22.244;2023-05-16T13:46:06;69.97;;;40.55;;
59458;SDS011;45269;43.568;22.244;2023-05-16T13:48:31;232.25;;;95.25;;
59458;SDS011;45269;43.568;22.244;2023-05-16T13:50:57;86.75;;;43.17;;
59458;SDS011;45269;43.568;22.244;2023-05-16T13:53:22;35.47;;;25.30;;
59458;SDS011;45269;43.568;22.244;2023-05-16T13:55:47;29.77;;;23.75;;
59458;SDS011;45269;43.568;22.244;2023-05-16T13:58:13;41.63;;;37.40;;
59458;SDS011;45269;43.568;22.244;2023-05-16T14:00:38;27.33;;;24.45;;
59458;SDS011;45269;43.568;22.244;2023-05-16T14:03:04;56.47;;;33.78;;
59458;SDS011;45269;43.568;22.244;2023-05-16T14:05:29;311.55;;;124.85;;
59458;SDS011;45269;43.568;22.244;2023-05-16T14:07:54;101.93;;;51.60;;
59458;SDS011;45269;43.568;22.244;2023-05-16T14:10:20;37.15;;;30.23;;
59458;SDS011;45269;43.568;22.244;2023-05-16T14:12:45;30.02;;;26.88;;
59458;SDS011;45269;43.568;22.244;2023-05-16T14:15:11;78.00;;;47.47;;
59458;SDS011;45269;43.568;22.244;2023-05-16T14:17:36;92.10;;;70.78;;
59458;SDS011;45269;43.568;22.244;2023-05-16T14:20:01;158.43;;;107.55;;